Time;durP1;ratioP1;P1;durP2;ratioP2;P2;SDS_P1;SDS_P2;PMS_P1;PMS_P2;Temp;Humidity;BMP_temperature;BMP_pressure;BME280_temperature;BME280_humidity;BME280_pressure;Samples;Min_cycle;Max_cycle;Signal;HPM_P1;HPM_P2
2024/01/01 00:02:51;;;;;;;125.70;77.30;;;;;;;3.04;93.93;99405.17;130171;1259;115263;-71
2024/01/01 00:05:54;;;;;;;137.00;74.70;;;;;;;3.09;93.97;99405.18;129942;1262;115119;-68
2024/01/01 00:08:56;;;;;;;139.90;83.50;;;;;;;3.15;94.25;99403.41;130305;1268;114749;-71
2024/01/01 00:11:58;;;;;;;128.60;77.10;;;;;;;3.20;94.30;99396.19;130201;1260;128620;-71
2024/01/01 00:15:01;;;;;;;128.50;77.10;;;;;;;3.26;94.44;99397.38;130164;1259;115301;-70
2024/01/01 00:18:03;;;;;;;119.20;70.60;;;;;;;3.32;94.35;99403.70;130254;1260;115218;-71
2024/01/01 00:21:05;;;;;;;117.50;71.20;;;;;;;3.39;94.38;99405.57;130220;1259;115439;-71
2024/01/01 00:24:07;;;;;;;111.50;67.30;;;;;;;3.46;94.55;99408.71;130160;1259;115173;-71
2024/01/01 00:27:09;;;;;;;107.90;66.80;;;;;;;3.52;94.61;99409.91;130243;1273;114801;-71
2024/01/01 00:30:12;;;;;;;97.90;56.70;;;;;;;3.58;94.71;99407.77;130170;1258;114881;-73
2024/01/01 00:33:14;;;;;;;105.80;63.60;;;;;;;3.63;94.89;99405.81;129926;1254;114938;-73
2024/01/01 00:36:16;;;;;;;99.40;56.90;;;;;;;3.68;94.83;99414.80;129754;1261;116469;-71
2024/01/01 00:39:19;;;;;;;97.90;56.60;;;;;;;3.74;94.96;99418.66;129946;1277;114764;-69
2024/01/01 00:42:22;;;;;;;99.20;60.30;;;;;;;3.78;94.93;99416.39;130230;1258;114757;-67
2024/01/01 00:45:24;;;;;;;96.50;56.90;;;;;;;3.84;95.04;99413.20;130232;1259;114795;-72
2024/01/01 00:48:26;;;;;;;90.50;51.90;;;;;;;3.88;95.07;99419.74;130243;1254;114714;-69
2024/01/01 00:51:28;;;;;;;86.40;51.30;;;;;;;3.92;95.05;99422.09;129856;1264;114789;-72
2024/01/01 00:54:30;;;;;;;85.00;54.60;;;;;;;3.97;95.05;99423.68;130118;1259;114757;-69
2024/01/01 00:57:33;;;;;;;83.20;52.90;;;;;;;4.01;95.23;99425.81;130260;1259;114735;-70
2024/01/01 01:00:35;;;;;;;81.70;47.70;;;;;;;4.05;95.27;99429.58;129598;1259;114779;-72
2024/01/01 01:03:38;;;;;;;81.30;46.40;;;;;;;4.08;95.16;99431.92;130249;1257;114722;-71
2024/01/01 01:06:40;;;;;;;72.00;44.20;;;;;;;4.11;95.27;99436.93;130239;1259;115200;-71
2024/01/01 01:09:43;;;;;;;79.60;44.40;;;;;;;4.14;95.08;99439.14;129895;1275;114805;-67
2024/01/01 01:12:45;;;;;;;79.40;44.30;;;;;;;4.17;95.32;99442.55;130280;1257;114728;-69
2024/01/01 01:15:48;;;;;;;74.50;44.30;;;;;;;4.21;95.31;99442.25;130234;1278;114738;-71
2024/01/01 01:18:51;;;;;;;74.10;44.50;;;;;;;4.21;95.11;99436.92;129958;1273;127919;-68
2024/01/01 01:21:53;;;;;;;82.90;49.20;;;;;;;4.25;95.05;99441.02;130224;1260;115339;-68
2024/01/01 01:24:56;;;;;;;81.50;45.00;;;;;;;4.27;95.34;99441.32;130243;1259;114792;-68
2024/01/01 01:27:59;;;;;;;78.90;45.00;;;;;;;4.29;95.22;99445.84;129932;1257;114699;-68
2024/01/01 01:31:02;;;;;;;79.70;44.20;;;;;;;4.30;95.11;99447.57;130184;1258;114725;-69
2024/01/01 01:34:04;;;;;;;80.60;48.80;;;;;;;4.29;95.11;99447.95;130195;1260;114673;-68
2024/01/01 01:37:09;;;;;;;74.10;43.20;;;;;;;4.29;95.23;99444.08;130121;1269;127725;-66
2024/01/01 01:40:12;;;;;;;75.00;46.50;;;;;;;4.31;95.21;99447.70;129820;1260;114850;-67
2024/01/01 01:43:24;;;;;;;69.30;41.50;;;;;;;4.30;94.98;99450.73;129883;1259;114728;-67
2024/01/01 01:46:28;;;;;;;71.20;43.50;;;;;;;4.30;94.91;99453.92;130388;1277;114836;-68
2024/01/01 01:49:31;;;;;;;69.40;41.20;;;;;;;4.31;95.14;99450.54;130279;1254;114794;-69
2024/01/01 01:52:38;;;;;;;61.20;37.50;;;;;;;4.31;95.19;99445.90;129877;1259;128631;-68
2024/01/01 01:55:44;;;;;;;61.90;34.80;;;;;;;4.33;95.17;99438.59;129836;1260;114781;-68
2024/01/01 01:58:47;;;;;;;59.90;35.20;;;;;;;4.35;95.28;99444.38;129636;1263;114911;-68
2024/01/01 02:01:50;;;;;;;59.30;33.30;;;;;;;4.36;95.13;99449.13;130192;1259;115245;-68
2024/01/01 02:04:52;;;;;;;53.30;30.40;;;;;;;4.37;95.21;99457.88;130141;1259;114699;-69
2024/01/01 02:07:55;;;;;;;54.60;30.50;;;;;;;4.39;95.33;99452.16;130142;1256;114811;-69
2024/01/01 02:10:57;;;;;;;54.80;32.10;;;;;;;4.40;95.35;99446.63;130215;1259;114747;-68
2024/01/01 02:14:07;;;;;;;51.00;29.30;;;;;;;4.43;95.39;99444.43;130172;1277;114804;-67
2024/01/01 02:17:09;;;;;;;49.50;30.80;;;;;;;4.45;95.37;99432.51;130246;1259;114661;-67
2024/01/01 02:20:12;;;;;;;46.10;27.50;;;;;;;4.46;95.51;99421.84;130202;1260;114764;-69
2024/01/01 02:23:16;;;;;;;47.40;29.00;;;;;;;4.48;95.50;99411.50;129982;1277;115237;-69
2024/01/01 02:26:18;;;;;;;46.80;28.10;;;;;;;4.51;95.63;99413.52;130144;1254;114809;-67
2024/01/01 02:29:21;;;;;;;44.60;25.50;;;;;;;4.53;95.42;99416.97;130139;1259;114772;-68
2024/01/01 02:32:23;;;;;;;44.10;26.30;;;;;;;4.56;95.68;99421.30;130154;1277;114745;-68
2024/01/01 02:35:25;;;;;;;44.90;27.10;;;;;;;4.59;95.75;99421.36;130174;1258;114816;-68
2024/01/01 02:38:27;;;;;;;46.60;26.20;;;;;;;4.60;95.57;99423.60;130213;1259;114702;-68
2024/01/01 02:41:31;;;;;;;41.40;25.10;;;;;;;4.63;95.82;99417.28;130217;1270;115164;-69
2024/01/01 02:44:34;;;;;;;43.20;28.30;;;;;;;4.64;95.67;99412.10;130177;1257;114824;-69
2024/01/01 02:47:37;;;;;;;41.80;24.30;;;;;;;4.64;95.75;99403.45;130150;1269;114674;-68
2024/01/01 02:50:39;;;;;;;49.20;27.10;;;;;;;4.66;95.83;99402.31;130127;1254;114757;-67
2024/01/01 02:53:41;;;;;;;44.50;24.10;;;;;;;4.67;95.54;99393.27;130202;1277;114732;-68
2024/01/01 02:56:48;;;;;;;43.40;24.10;;;;;;;4.67;95.52;99392.04;129989;1254;114771;-67
2024/01/01 02:59:50;;;;;;;40.30;25.20;;;;;;;4.66;95.49;99378.25;130217;1260;114687;-68
2024/01/01 03:02:52;;;;;;;39.40;23.50;;;;;;;4.67;95.49;99370.09;130196;1259;114799;-68
2024/01/01 03:05:54;;;;;;;39.40;25.50;;;;;;;4.67;95.67;99364.62;130300;1257;114777;-68
2024/01/01 03:08:56;;;;;;;39.20;23.90;;;;;;;4.68;95.67;99360.69;129868;1254;129228;-70
2024/01/01 03:11:58;;;;;;;39.70;24.30;;;;;;;4.68;95.53;99362.08;130168;1259;115420;-68
2024/01/01 03:15:02;;;;;;;36.50;24.10;;;;;;;4.68;95.38;99359.62;130185;1254;114769;-68
2024/01/01 03:18:05;;;;;;;35.70;22.40;;;;;;;4.68;95.39;99356.64;130124;1259;114806;-68
2024/01/01 03:21:08;;;;;;;39.10;24.30;;;;;;;4.67;95.47;99352.76;129882;1254;115087;-68
2024/01/01 03:24:10;;;;;;;36.80;23.10;;;;;;;4.65;95.29;99348.39;130157;1259;114825;-69
2024/01/01 03:27:12;;;;;;;41.80;22.80;;;;;;;4.64;95.28;99350.97;130213;1275;114716;-69
2024/01/01 03:30:14;;;;;;;40.00;22.10;;;;;;;4.62;95.23;99347.13;130224;1259;129169;-67
2024/01/01 03:33:17;;;;;;;36.10;22.30;;;;;;;4.59;95.08;99350.96;130259;1258;114834;-68
2024/01/01 03:36:19;;;;;;;39.00;22.50;;;;;;;4.55;95.19;99347.74;130238;1257;114660;-68
2024/01/01 03:39:21;;;;;;;35.50;21.10;;;;;;;4.52;95.26;99339.38;130184;1258;114677;-68
2024/01/01 03:42:23;;;;;;;36.90;23.10;;;;;;;4.51;95.27;99340.31;130181;1254;115102;-68
2024/01/01 03:45:25;;;;;;;43.10;26.60;;;;;;;4.50;95.36;99350.80;130229;1258;114953;-68
2024/01/01 03:48:27;;;;;;;36.90;23.10;;;;;;;4.50;95.29;99348.51;129837;1262;114834;-68
2024/01/01 03:51:31;;;;;;;38.20;21.70;;;;;;;4.49;95.36;99351.88;130017;1262;114814;-68
2024/01/01 03:54:34;;;;;;;34.00;19.80;;;;;;;4.49;95.35;99355.60;130212;1277;114767;-68
2024/01/01 03:57:37;;;;;;;36.60;21.00;;;;;;;4.49;95.49;99359.30;130181;1259;114763;-69
2024/01/01 04:00:39;;;;;;;33.10;21.30;;;;;;;4.51;95.55;99356.25;130005;1254;114767;-67
2024/01/01 04:03:41;;;;;;;31.90;19.00;;;;;;;4.52;95.52;99357.42;130353;1257;115089;-68
2024/01/01 04:06:44;;;;;;;33.30;20.30;;;;;;;4.53;95.62;99360.58;129977;1277;114834;-69
2024/01/01 04:09:46;;;;;;;32.90;19.10;;;;;;;4.54;95.59;99364.79;130098;1259;114828;-68
2024/01/01 04:12:49;;;;;;;32.10;17.60;;;;;;;4.53;95.58;99376.65;130197;1259;115342;-69
2024/01/01 04:15:52;;;;;;;31.50;20.80;;;;;;;4.54;95.63;99378.92;130301;1258;115323;-67
2024/01/01 04:18:54;;;;;;;30.50;17.80;;;;;;;4.55;95.75;99369.69;130210;1258;115174;-67
2024/01/01 04:21:56;;;;;;;24.80;15.90;;;;;;;4.57;95.70;99367.32;130183;1259;114812;-68
2024/01/01 04:24:58;;;;;;;24.60;14.10;;;;;;;4.58;95.73;99369.05;130236;1259;114789;-68
2024/01/01 04:28:00;;;;;;;22.70;12.20;;;;;;;4.59;95.89;99370.77;129869;1257;115113;-69
2024/01/01 04:31:03;;;;;;;19.50;11.40;;;;;;;4.60;95.82;99366.48;130189;1254;114789;-68
2024/01/01 04:34:06;;;;;;;22.10;12.60;;;;;;;4.62;95.93;99363.21;130168;1256;115180;-68
2024/01/01 04:37:08;;;;;;;21.00;11.10;;;;;;;4.65;96.00;99366.46;130192;1270;114933;-69
2024/01/01 04:40:20;;;;;;;18.10;10.70;;;;;;;4.67;96.00;99360.88;129875;1258;114905;-68
2024/01/01 04:43:22;;;;;;;;;;;;;;;4.70;95.89;99365.92;130180;1259;114724;-68
2024/01/01 04:46:24;;;;;;;17.40;11.00;;;;;;;4.71;96.12;99369.23;130169;1277;114797;-69
2024/01/01 04:49:27;;;;;;;17.70;11.20;;;;;;;4.71;95.87;99356.13;130248;1259;114729;-68
2024/01/01 04:52:30;;;;;;;19.10;9.90;;;;;;;4.71;95.89;99356.85;130264;1254;128566;-68
2024/01/01 04:55:33;;;;;;;16.90;10.80;;;;;;;4.72;96.07;99352.91;130239;1256;115129;-68
2024/01/01 04:58:36;;;;;;;16.60;9.60;;;;;;;4.72;95.97;99357.32;129983;1272;115377;-68
2024/01/01 05:01:38;;;;;;;16.40;9.30;;;;;;;4.73;95.99;99358.34;130337;1259;114639;-70
2024/01/01 05:04:40;;;;;;;17.20;9.10;;;;;;;4.75;96.11;99352.09;130309;1259;114757;-68
2024/01/01 05:07:44;;;;;;;17.00;9.90;;;;;;;4.76;95.86;99342.52;130170;1259;114792;-67
2024/01/01 05:10:46;;;;;;;16.80;11.10;;;;;;;4.73;95.74;99333.59;130289;1277;128196;-69
2024/01/01 05:13:49;;;;;;;14.30;8.50;;;;;;;4.77;95.91;99335.58;130121;1254;114818;-67
2024/01/01 05:16:51;;;;;;;17.40;10.10;;;;;;;4.78;95.88;99330.39;130271;1259;114787;-67
2024/01/01 05:19:53;;;;;;;16.90;9.20;;;;;;;4.79;95.84;99327.70;130200;1256;114811;-68
2024/01/01 05:22:55;;;;;;;17.00;10.00;;;;;;;4.79;95.86;99324.52;130197;1255;115321;-68
2024/01/01 05:25:57;;;;;;;15.90;9.00;;;;;;;4.79;95.87;99323.79;130201;1256;114777;-68
2024/01/01 05:29:00;;;;;;;16.30;9.90;;;;;;;4.81;95.79;99317.37;130298;1259;114727;-69
2024/01/01 05:32:02;;;;;;;14.60;10.10;;;;;;;4.81;95.97;99320.20;130115;1254;129030;-68
2024/01/01 05:35:05;;;;;;;17.50;9.20;;;;;;;4.81;95.91;99320.88;130279;1254;114801;-67
2024/01/01 05:38:10;;;;;;;17.90;9.70;;;;;;;4.82;95.79;99321.02;130265;1254;115416;-68
2024/01/01 05:41:12;;;;;;;16.10;8.40;;;;;;;4.81;95.61;99324.23;129948;1257;114783;-68
2024/01/01 05:44:15;;;;;;;15.70;8.80;;;;;;;4.80;95.77;99330.12;130247;1257;115124;-67
2024/01/01 05:47:21;;;;;;;13.20;9.80;;;;;;;4.78;95.67;99332.52;129747;1277;128467;-66
2024/01/01 05:50:24;;;;;;;15.30;9.80;;;;;;;4.78;95.73;99330.59;130179;1277;114752;-68
2024/01/01 05:53:26;;;;;;;15.10;9.10;;;;;;;4.75;95.75;99323.93;130241;1259;115454;-67
2024/01/01 05:56:29;;;;;;;15.40;9.30;;;;;;;4.76;95.66;99324.06;130166;1259;114734;-68
2024/01/01 05:59:31;;;;;;;16.70;9.70;;;;;;;4.75;95.65;99314.40;130011;1260;114723;-68
2024/01/01 06:02:33;;;;;;;17.30;10.30;;;;;;;4.73;95.66;99312.73;130156;1259;115202;-68
2024/01/01 06:05:35;;;;;;;15.60;9.10;;;;;;;4.71;95.57;99322.34;130258;1256;116032;-68
2024/01/01 06:08:38;;;;;;;18.00;9.70;;;;;;;4.71;95.67;99324.66;130171;1258;128876;-68
2024/01/01 06:11:41;;;;;;;18.30;10.90;;;;;;;4.70;95.57;99323.28;130230;1260;114962;-68
2024/01/01 06:14:43;;;;;;;15.70;10.30;;;;;;;4.68;95.56;99321.05;130157;1256;114830;-68
2024/01/01 06:17:45;;;;;;;16.80;10.00;;;;;;;4.66;95.52;99323.42;130235;1259;115177;-67
2024/01/01 06:20:47;;;;;;;14.20;8.80;;;;;;;4.64;95.59;99328.98;130183;1259;114825;-68
2024/01/01 06:23:50;;;;;;;19.50;9.10;;;;;;;4.63;95.60;99324.11;130162;1259;114760;-68
2024/01/01 06:26:52;;;;;;;20.20;11.20;;;;;;;4.62;95.52;99323.45;129970;1259;115325;-68
2024/01/01 06:29:54;;;;;;;18.60;11.10;;;;;;;4.61;95.45;99324.91;130101;1256;128952;-69
2024/01/01 06:32:57;;;;;;;20.60;11.60;;;;;;;4.60;95.63;99333.41;130003;1256;115391;-67
2024/01/01 06:35:59;;;;;;;21.10;12.00;;;;;;;4.60;95.51;99333.60;130051;1259;114786;-67
2024/01/01 06:39:03;;;;;;;20.80;12.70;;;;;;;4.60;95.51;99335.04;130192;1259;114725;-67
2024/01/01 06:42:05;;;;;;;24.40;15.30;;;;;;;4.58;95.59;99329.41;130155;1259;114783;-69
2024/01/01 06:45:10;;;;;;;18.90;11.80;;;;;;;4.58;95.69;99336.67;130108;1259;115386;-68
2024/01/01 06:48:12;;;;;;;20.10;12.70;;;;;;;4.58;95.60;99347.64;130121;1259;129050;-68
2024/01/01 06:51:15;;;;;;;16.30;9.80;;;;;;;4.59;95.84;99351.14;130124;1259;114834;-68
2024/01/01 06:54:17;;;;;;;22.30;12.50;;;;;;;4.60;95.72;99359.95;130230;1259;114737;-68
2024/01/01 06:57:20;;;;;;;32.10;20.90;;;;;;;4.59;95.73;99363.89;130284;1260;115306;-67
2024/01/01 07:00:22;;;;;;;19.70;13.20;;;;;;;4.61;95.64;99364.35;130226;1268;114688;-68
2024/01/01 07:03:25;;;;;;;18.40;11.00;;;;;;;4.61;95.64;99357.25;129938;1267;114828;-68
2024/01/01 07:06:27;;;;;;;18.50;10.80;;;;;;;4.63;95.74;99351.52;130288;1256;114735;-69
2024/01/01 07:09:30;;;;;;;26.20;16.50;;;;;;;4.64;95.80;99354.32;130300;1259;114709;-69
2024/01/01 07:12:32;;;;;;;26.30;18.40;;;;;;;4.64;95.85;99363.70;130203;1259;114784;-68
2024/01/01 07:15:34;;;;;;;25.40;16.40;;;;;;;4.66;95.93;99364.49;130152;1259;114634;-69
2024/01/01 07:18:50;;;;;;;21.40;13.90;;;;;;;4.67;95.97;99355.95;129908;1262;115124;-68
2024/01/01 07:21:52;;;;;;;23.00;16.30;;;;;;;4.69;95.99;99354.98;130134;1259;114888;-68
2024/01/01 07:24:54;;;;;;;17.60;13.60;;;;;;;4.71;95.97;99362.35;130247;1254;115637;-68
2024/01/01 07:27:56;;;;;;;19.20;12.90;;;;;;;4.71;95.87;99367.80;130165;1259;128799;-68
2024/01/01 07:30:59;;;;;;;19.30;12.50;;;;;;;4.73;95.77;99373.77;130248;1259;115108;-70
2024/01/01 07:34:03;;;;;;;18.50;12.50;;;;;;;4.73;95.94;99370.91;129930;1259;114798;-69
2024/01/01 07:37:05;;;;;;;18.80;11.50;;;;;;;4.76;95.99;99368.15;130181;1257;115186;-68
2024/01/01 07:40:08;;;;;;;17.90;12.90;;;;;;;4.78;96.09;99372.70;130224;1254;115390;-69
2024/01/01 07:43:10;;;;;;;17.40;10.60;;;;;;;4.79;96.00;99377.59;130138;1259;114698;-67
2024/01/01 07:46:12;;;;;;;17.60;11.00;;;;;;;4.79;96.00;99380.59;130140;1258;115070;-69
2024/01/01 07:49:15;;;;;;;17.20;10.60;;;;;;;4.78;96.09;99374.61;130191;1255;114744;-69
2024/01/01 07:52:17;;;;;;;17.00;11.00;;;;;;;4.82;96.06;99386.48;130248;1257;114723;-68
2024/01/01 07:55:20;;;;;;;18.10;10.30;;;;;;;4.81;95.99;99387.73;129983;1262;115273;-68
2024/01/01 07:58:23;;;;;;;16.70;11.00;;;;;;;4.83;96.18;99390.14;129785;1262;114913;-67
2024/01/01 08:01:25;;;;;;;19.50;12.10;;;;;;;4.84;95.96;99386.55;129674;1262;114947;-68
2024/01/01 08:04:31;;;;;;;17.20;11.20;;;;;;;4.84;96.00;99383.58;129814;1262;114841;-68
2024/01/01 08:07:33;;;;;;;19.30;13.10;;;;;;;4.88;96.18;99391.71;129556;1262;129149;-67
2024/01/01 08:10:35;;;;;;;17.80;12.20;;;;;;;4.90;96.17;99392.52;129717;1262;115262;-67
2024/01/01 08:13:38;;;;;;;25.80;15.30;;;;;;;4.92;96.27;99391.03;130016;1259;115353;-68
2024/01/01 08:16:40;;;;;;;20.40;12.80;;;;;;;4.94;96.24;99391.12;130191;1257;115400;-69
2024/01/01 08:19:42;;;;;;;23.60;15.10;;;;;;;4.97;96.25;99388.16;130181;1259;115399;-69
2024/01/01 08:22:44;;;;;;;19.50;13.40;;;;;;;5.01;96.40;99386.08;130210;1259;114706;-69
2024/01/01 08:25:46;;;;;;;22.50;14.10;;;;;;;5.04;96.32;99385.21;130161;1259;114786;-68
2024/01/01 08:28:51;;;;;;;26.40;17.20;;;;;;;5.07;96.45;99386.51;130140;1259;114704;-68
2024/01/01 08:31:53;;;;;;;29.60;16.60;;;;;;;5.11;96.45;99385.80;130309;1258;114738;-68
2024/01/01 08:34:55;;;;;;;29.80;18.70;;;;;;;5.14;96.12;99384.80;129987;1277;115292;-69
2024/01/01 08:37:58;;;;;;;35.50;21.40;;;;;;;5.17;96.17;99379.20;130232;1259;115193;-68
2024/01/01 08:41:00;;;;;;;32.10;20.50;;;;;;;5.20;96.27;99384.40;130154;1277;114672;-69
2024/01/01 08:44:03;;;;;;;33.40;18.90;;;;;;;5.23;96.41;99385.16;130176;1272;114763;-69
2024/01/01 08:47:05;;;;;;;36.20;19.50;;;;;;;5.27;96.31;99391.02;130154;1257;114802;-69
2024/01/01 08:50:08;;;;;;;34.90;17.80;;;;;;;5.31;96.53;99384.95;130197;1260;114749;-68
2024/01/01 08:53:10;;;;;;;27.00;15.90;;;;;;;5.37;96.58;99381.21;130226;1259;115051;-68
2024/01/01 08:56:12;;;;;;;27.10;15.40;;;;;;;5.43;96.53;99381.45;130093;1261;115564;-69
2024/01/01 08:59:15;;;;;;;31.20;18.20;;;;;;;5.50;96.73;99382.55;130196;1259;115300;-68
2024/01/01 09:02:18;;;;;;;27.00;17.70;;;;;;;5.57;96.83;99384.02;130171;1260;115090;-69
2024/01/01 09:05:20;;;;;;;32.80;19.30;;;;;;;5.67;97.06;99387.67;130139;1257;114823;-69
2024/01/01 09:08:22;;;;;;;40.90;23.90;;;;;;;5.76;97.04;99387.13;130249;1259;115434;-68
2024/01/01 09:11:24;;;;;;;42.00;25.60;;;;;;;5.84;96.93;99392.24;130172;1254;128952;-67
2024/01/01 09:14:26;;;;;;;40.80;23.30;;;;;;;5.91;96.92;99388.55;130157;1259;114670;-69
2024/01/01 09:17:28;;;;;;;42.80;24.60;;;;;;;6.00;97.05;99386.59;130228;1259;115044;-68
2024/01/01 09:20:30;;;;;;;45.40;25.30;;;;;;;6.08;97.07;99376.31;129830;1256;114822;-68
2024/01/01 09:23:32;;;;;;;38.20;21.70;;;;;;;6.16;97.04;99373.82;130157;1254;114732;-68
2024/01/01 09:26:35;;;;;;;33.10;17.40;;;;;;;6.23;96.76;99369.59;130256;1259;114919;-68
2024/01/01 09:29:37;;;;;;;29.30;16.70;;;;;;;6.29;96.53;99367.73;130110;1259;114747;-68
2024/01/01 09:32:40;;;;;;;23.50;14.30;;;;;;;6.35;96.46;99367.45;130121;1259;117260;-68
2024/01/01 09:35:42;;;;;;;24.50;14.70;;;;;;;6.42;96.87;99365.70;130161;1259;114763;-68
2024/01/01 09:38:44;;;;;;;22.60;13.50;;;;;;;6.48;96.71;99360.26;130158;1257;114720;-68
2024/01/01 09:41:52;;;;;;;18.00;13.00;;;;;;;6.56;96.68;99360.09;130192;1258;114715;-69
2024/01/01 09:44:54;;;;;;;20.00;12.80;;;;;;;6.61;96.59;99359.66;129825;1262;114908;-69
2024/01/01 09:47:56;;;;;;;18.70;11.80;;;;;;;6.67;96.68;99358.81;130110;1275;114703;-69
2024/01/01 09:51:02;;;;;;;19.50;11.10;;;;;;;6.75;96.54;99362.70;129959;1277;114811;-69
2024/01/01 09:54:04;;;;;;;22.40;12.70;;;;;;;6.82;96.56;99367.32;130167;1254;128248;-69
2024/01/01 09:57:07;;;;;;;22.80;13.90;;;;;;;6.90;96.49;99365.00;130242;1259;114820;-68
2024/01/01 10:00:29;;;;;;;83.80;40.20;;;;;;;6.96;96.25;99364.89;130145;1259;114699;-70
2024/01/01 10:03:31;;;;;;;55.80;29.50;;;;;;;7.03;96.32;99364.55;130324;1259;114827;-67
2024/01/01 10:06:38;;;;;;;36.30;22.00;;;;;;;7.09;95.82;99362.98;130292;1259;114725;-68
2024/01/01 10:09:48;;;;;;;26.60;17.70;;;;;;;7.16;96.39;99360.84;130143;1276;129596;-68
2024/01/01 10:12:50;;;;;;;20.70;13.50;;;;;;;7.22;95.82;99363.73;130183;1259;114722;-68
2024/01/01 10:15:56;;;;;;;25.70;14.80;;;;;;;7.28;95.64;99366.64;130137;1268;114811;-69
2024/01/01 10:19:00;;;;;;;23.20;13.70;;;;;;;7.33;95.53;99370.29;130222;1260;114793;-68
2024/01/01 10:22:11;;;;;;;22.90;12.60;;;;;;;7.37;95.22;99369.01;130022;1275;114854;-69
2024/01/01 10:25:16;;;;;;;26.50;14.70;;;;;;;7.44;95.12;99364.39;130212;1259;128513;-68
2024/01/01 10:28:24;;;;;;;34.00;20.80;;;;;;;7.53;95.00;99367.16;129887;1273;114888;-68
2024/01/01 10:31:26;;;;;;;28.40;15.00;;;;;;;7.59;94.63;99361.98;129951;1257;114828;-69
2024/01/01 10:34:29;;;;;;;29.90;19.30;;;;;;;7.65;94.53;99362.28;130259;1259;115376;-68
2024/01/01 10:37:32;;;;;;;33.10;19.00;;;;;;;7.73;94.05;99361.98;130041;1257;114818;-68
2024/01/01 10:40:34;;;;;;;36.00;22.50;;;;;;;7.83;94.71;99362.56;130039;1254;114783;-68
2024/01/01 10:43:37;;;;;;;27.70;16.70;;;;;;;7.93;94.38;99355.80;130189;1259;114722;-67
2024/01/01 10:46:39;;;;;;;25.50;18.10;;;;;;;8.02;94.54;99357.98;129936;1260;114772;-67
2024/01/01 10:49:49;;;;;;;30.40;20.30;;;;;;;8.11;93.99;99356.81;130126;1259;115520;-68
2024/01/01 10:53:11;;;;;;;27.50;17.60;;;;;;;8.17;93.70;99354.48;130200;1260;114804;-68
2024/01/01 10:56:27;;;;;;;34.20;20.10;;;;;;;8.24;93.57;99353.21;130125;1259;114832;-67
2024/01/01 10:59:46;;;;;;;27.00;17.60;;;;;;;8.32;93.66;99353.13;130127;1260;128600;-67
2024/01/01 11:02:48;;;;;;;27.60;18.20;;;;;;;8.42;93.43;99351.19;130162;1254;115388;-69
2024/01/01 11:05:51;;;;;;;23.50;16.00;;;;;;;8.52;93.78;99351.01;130131;1259;114710;-69
2024/01/01 11:08:57;;;;;;;20.80;12.90;;;;;;;8.61;93.70;99350.33;130216;1277;114756;-70
2024/01/01 11:12:02;;;;;;;17.00;10.50;;;;;;;8.70;93.29;99350.16;130017;1277;176330;-69
2024/01/01 11:15:39;;;;;;;18.30;10.80;;;;;;;8.77;92.81;99346.55;130241;1259;129016;-67
2024/01/01 11:18:44;;;;;;;17.00;10.50;;;;;;;8.82;92.05;99339.31;129886;1263;114768;-68
2024/01/01 11:21:46;;;;;;;16.50;9.40;;;;;;;8.86;91.99;99335.05;130129;1256;114728;-67
2024/01/01 11:24:50;;;;;;;17.30;9.70;;;;;;;8.86;91.63;99334.68;130150;1273;114736;-66
2024/01/01 11:27:53;;;;;;;16.50;9.70;;;;;;;8.85;91.62;99336.49;129909;1264;114758;-69
2024/01/01 11:30:56;;;;;;;15.20;10.40;;;;;;;8.82;91.50;99337.23;130106;1260;115052;-68
2024/01/01 11:34:05;;;;;;;17.40;10.10;;;;;;;8.77;91.19;99334.80;130175;1260;114728;-72
2024/01/01 11:37:21;;;;;;;16.30;9.60;;;;;;;8.73;90.89;99329.54;129882;1262;114703;-68
2024/01/01 11:40:32;;;;;;;15.60;9.60;;;;;;;8.71;91.05;99331.77;130252;1262;114718;-69
2024/01/01 11:43:35;;;;;;;14.00;10.20;;;;;;;8.70;90.68;99331.86;129847;1259;115932;-68
2024/01/01 11:46:38;;;;;;;16.00;9.90;;;;;;;8.67;90.78;99328.83;130180;1259;114730;-69
2024/01/01 11:49:44;;;;;;;15.10;8.70;;;;;;;8.68;90.95;99332.85;130266;1275;114890;-68
2024/01/01 11:53:01;;;;;;;17.40;10.00;;;;;;;8.68;91.06;99329.83;129828;1256;114735;-68
2024/01/01 11:56:15;;;;;;;15.40;8.10;;;;;;;8.64;90.49;99326.48;129942;1259;114874;-69
2024/01/01 11:59:18;;;;;;;16.10;8.70;;;;;;;8.55;89.80;99327.54;130054;1262;115149;-69
2024/01/01 12:02:21;;;;;;;13.70;8.10;;;;;;;8.49;89.82;99325.52;130020;1261;115114;-69
2024/01/01 12:05:23;;;;;;;15.10;9.40;;;;;;;8.50;90.20;99326.38;129920;1260;114741;-67
2024/01/01 12:08:26;;;;;;;15.40;9.70;;;;;;;8.50;90.19;99324.24;129717;1278;114804;-61
2024/01/01 12:11:28;;;;;;;16.50;10.10;;;;;;;8.49;90.10;99317.16;129827;1263;114811;-63
2024/01/01 12:14:30;;;;;;;18.40;11.70;;;;;;;8.53;90.21;99313.23;129841;1259;114731;-63
2024/01/01 12:17:38;;;;;;;16.30;9.20;;;;;;;8.58;90.27;99314.02;130022;1278;114949;-62
2024/01/01 12:20:40;;;;;;;16.40;10.10;;;;;;;8.64;90.18;99313.28;129770;1277;114797;-63
2024/01/01 12:23:42;;;;;;;14.10;8.90;;;;;;;8.75;90.15;99313.77;129936;1259;115205;-63
2024/01/01 12:26:48;;;;;;;13.70;8.30;;;;;;;8.86;90.54;99313.98;129916;1260;114749;-63
2024/01/01 12:29:50;;;;;;;;;;;;;;;9.01;90.52;99316.86;130057;1259;114735;-63
2024/01/01 12:32:54;;;;;;;16.40;9.90;;;;;;;9.11;89.95;99311.66;129977;1259;115196;-63
2024/01/01 12:35:56;;;;;;;12.80;8.40;;;;;;;9.21;89.62;99315.16;129896;1259;114917;-63
2024/01/01 12:38:58;;;;;;;14.90;9.40;;;;;;;9.29;89.34;99313.61;129936;1258;114835;-63
2024/01/01 12:42:03;;;;;;;13.50;7.90;;;;;;;9.34;89.06;99319.23;130014;1254;114757;-62
2024/01/01 12:45:06;;;;;;;16.80;10.40;;;;;;;9.37;89.15;99319.02;129971;1259;116126;-64
2024/01/01 12:48:09;;;;;;;18.10;11.70;;;;;;;9.44;89.53;99322.50;129762;1262;114843;-63
2024/01/01 12:51:18;;;;;;;15.80;9.20;;;;;;;9.50;88.97;99323.40;129968;1268;114977;-63
2024/01/01 12:54:22;;;;;;;14.70;9.30;;;;;;;9.54;88.76;99324.07;129921;1275;128692;-62
2024/01/01 12:57:24;;;;;;;15.30;8.80;;;;;;;9.55;88.30;99323.59;129917;1259;114722;-63
2024/01/01 13:00:27;;;;;;;13.70;8.40;;;;;;;9.56;88.09;99324.28;129952;1259;114725;-63
2024/01/01 13:03:30;;;;;;;14.20;8.10;;;;;;;9.56;88.06;99313.58;129668;1272;114741;-64
2024/01/01 13:06:33;;;;;;;14.90;8.30;;;;;;;9.58;87.64;99314.55;129961;1278;114719;-63
2024/01/01 13:09:35;;;;;;;9.80;6.40;;;;;;;9.57;86.95;99319.02;130025;1260;114743;-63
2024/01/01 13:12:38;;;;;;;12.70;6.90;;;;;;;9.57;86.46;99319.06;129983;1272;114783;-65
2024/01/01 13:15:40;;;;;;;10.70;6.50;;;;;;;9.54;85.96;99317.45;129942;1273;114735;-64
2024/01/01 13:18:43;;;;;;;11.30;7.00;;;;;;;9.53;85.87;99323.40;130101;1264;115237;-63
2024/01/01 13:21:46;;;;;;;9.20;4.60;;;;;;;9.52;85.58;99324.50;129993;1267;114720;-63
2024/01/01 13:24:48;;;;;;;11.70;4.80;;;;;;;9.50;84.66;99327.50;130034;1263;114730;-64
2024/01/01 13:27:55;;;;;;;8.70;4.30;;;;;;;9.48;84.57;99328.15;129676;1274;114767;-63
2024/01/01 13:30:59;;;;;;;10.90;4.60;;;;;;;9.48;84.31;99334.80;129924;1260;115145;-65
2024/01/01 13:34:03;;;;;;;9.20;5.50;;;;;;;9.46;84.20;99335.25;129970;1268;114774;-63
2024/01/01 13:37:09;;;;;;;7.70;3.80;;;;;;;9.35;83.30;99335.15;130064;1258;114757;-66
2024/01/01 13:40:14;;;;;;;7.90;4.70;;;;;;;9.25;82.96;99335.59;129668;1268;114897;-63
2024/01/01 13:43:19;;;;;;;9.00;4.80;;;;;;;9.14;82.73;99340.33;129947;1263;114725;-65
2024/01/01 13:46:21;;;;;;;;;;;;;;;9.03;82.40;99339.53;129914;1268;128484;-64
2024/01/01 13:49:25;;;;;;;11.30;4.90;;;;;;;8.90;81.99;99346.75;129965;1259;115102;-66
2024/01/01 13:52:31;;;;;;;8.10;4.70;;;;;;;8.75;81.91;99346.66;130077;1260;115029;-65
2024/01/01 13:55:35;;;;;;;12.30;6.10;;;;;;;8.62;81.60;99346.55;130046;1260;114715;-65
2024/01/01 13:58:38;;;;;;;8.70;5.40;;;;;;;8.50;81.71;99352.16;129753;1273;114652;-65